sensor_id;sensor_type;location;lat;lon;timestamp;temperature;humidity
15426;DHT22;7812;50.072;7.036;2022-12-18T00:01:04;-9.00;99.90
15426;DHT22;7812;50.072;7.036;2022-12-18T00:03:33;-8.90;99.90
15426;DHT22;7812;50.072;7.036;2022-12-18T00:05:59;-8.80;99.90
15426;DHT22;7812;50.072;7.036;2022-12-18T00:08:25;-8.90;99.90
15426;DHT22;7812;50.072;7.036;2022-12-18T00:10:50;-8.90;99.90
15426;DHT22;7812;50.072;7.036;2022-12-18T00:13:16;-9.00;99.90
15426;DHT22;7812;50.072;7.036;2022-12-18T00:15:42;-9.10;99.90
15426;DHT22;7812;50.072;7.036;2022-12-18T00:18:08;-9.10;99.90
15426;DHT22;7812;50.072;7.036;2022-12-18T00:20:37;-9.40;99.90
15426;DHT22;7812;50.072;7.036;2022-12-18T00:23:04;-9.30;99.90
15426;DHT22;7812;50.072;7.036;2022-12-18T00:25:33;-9.20;99.90
15426;DHT22;7812;50.072;7.036;2022-12-18T00:28:00;-9.10;99.90
15426;DHT22;7812;50.072;7.036;2022-12-18T00:30:26;-8.90;99.90
15426;DHT22;7812;50.072;7.036;2022-12-18T00:32:52;-8.80;99.90
15426;DHT22;7812;50.072;7.036;2022-12-18T00:35:17;-8.90;99.90
15426;DHT22;7812;50.072;7.036;2022-12-18T00:37:43;-8.80;99.90
15426;DHT22;7812;50.072;7.036;2022-12-18T00:40:10;-8.90;99.90
15426;DHT22;7812;50.072;7.036;2022-12-18T00:42:36;-9.00;99.90
15426;DHT22;7812;50.072;7.036;2022-12-18T00:45:21;-9.10;99.90
15426;DHT22;7812;50.072;7.036;2022-12-18T00:47:49;-9.20;99.90
15426;DHT22;7812;50.072;7.036;2022-12-18T00:50:15;-9.10;99.90
15426;DHT22;7812;50.072;7.036;2022-12-18T00:52:42;-9.10;99.90
15426;DHT22;7812;50.072;7.036;2022-12-18T00:55:08;-9.10;99.90
15426;DHT22;7812;50.072;7.036;2022-12-18T00:57:36;-9.30;99.90
15426;DHT22;7812;50.072;7.036;2022-12-18T01:00:03;-9.40;99.90
15426;DHT22;7812;50.072;7.036;2022-12-18T01:02:29;-9.30;99.90
15426;DHT22;7812;50.072;7.036;2022-12-18T01:04:55;-9.30;99.90
15426;DHT22;7812;50.072;7.036;2022-12-18T01:07:22;-9.30;99.90
15426;DHT22;7812;50.072;7.036;2022-12-18T01:09:47;-9.20;99.90
15426;DHT22;7812;50.072;7.036;2022-12-18T01:12:13;-9.20;99.90
15426;DHT22;7812;50.072;7.036;2022-12-18T01:14:39;-9.20;99.90
15426;DHT22;7812;50.072;7.036;2022-12-18T01:17:05;-9.30;99.90
15426;DHT22;7812;50.072;7.036;2022-12-18T01:19:30;-9.30;99.90
15426;DHT22;7812;50.072;7.036;2022-12-18T01:21:56;-9.30;99.90
15426;DHT22;7812;50.072;7.036;2022-12-18T01:24:23;-9.20;99.90
15426;DHT22;7812;50.072;7.036;2022-12-18T01:26:48;-9.10;99.90
15426;DHT22;7812;50.072;7.036;2022-12-18T01:29:14;-9.20;99.90
15426;DHT22;7812;50.072;7.036;2022-12-18T01:31:40;-9.10;99.90
15426;DHT22;7812;50.072;7.036;2022-12-18T01:34:06;-9.20;99.90
15426;DHT22;7812;50.072;7.036;2022-12-18T01:36:34;-9.20;99.90
15426;DHT22;7812;50.072;7.036;2022-12-18T01:39:05;-9.30;99.90
15426;DHT22;7812;50.072;7.036;2022-12-18T01:41:33;-9.30;99.90
15426;DHT22;7812;50.072;7.036;2022-12-18T01:49:46;-9.40;99.90
15426;DHT22;7812;50.072;7.036;2022-12-18T01:52:13;-9.30;99.90
15426;DHT22;7812;50.072;7.036;2022-12-18T01:54:40;-9.20;99.90
15426;DHT22;7812;50.072;7.036;2022-12-18T01:57:06;-9.20;99.90
15426;DHT22;7812;50.072;7.036;2022-12-18T01:59:33;-9.20;99.90
15426;DHT22;7812;50.072;7.036;2022-12-18T02:02:01;-9.20;99.90
15426;DHT22;7812;50.072;7.036;2022-12-18T02:04:27;-9.60;99.90
15426;DHT22;7812;50.072;7.036;2022-12-18T02:09:50;-9.40;99.90
15426;DHT22;7812;50.072;7.036;2022-12-18T02:17:22;-9.40;99.90
15426;DHT22;7812;50.072;7.036;2022-12-18T02:20:17;-9.50;99.90
15426;DHT22;7812;50.072;7.036;2022-12-18T02:27:56;-9.80;99.90
15426;DHT22;7812;50.072;7.036;2022-12-18T02:30:26;-9.80;99.90
15426;DHT22;7812;50.072;7.036;2022-12-18T02:32:54;-9.70;99.90
15426;DHT22;7812;50.072;7.036;2022-12-18T02:35:24;-9.60;99.90
15426;DHT22;7812;50.072;7.036;2022-12-18T02:37:51;-9.50;99.90
15426;DHT22;7812;50.072;7.036;2022-12-18T02:40:22;-9.70;99.90
15426;DHT22;7812;50.072;7.036;2022-12-18T02:42:48;-9.80;99.90
15426;DHT22;7812;50.072;7.036;2022-12-18T02:45:14;-10.00;99.90
15426;DHT22;7812;50.072;7.036;2022-12-18T02:47:43;-9.90;99.90
15426;DHT22;7812;50.072;7.036;2022-12-18T02:53:31;-9.80;99.90
15426;DHT22;7812;50.072;7.036;2022-12-18T02:56:07;-9.70;99.90
15426;DHT22;7812;50.072;7.036;2022-12-18T03:01:24;-9.70;99.90
15426;DHT22;7812;50.072;7.036;2022-12-18T03:03:55;-9.80;99.90
15426;DHT22;7812;50.072;7.036;2022-12-18T03:06:35;-9.70;99.90
15426;DHT22;7812;50.072;7.036;2022-12-18T03:09:07;-9.60;99.90
15426;DHT22;7812;50.072;7.036;2022-12-18T03:11:38;-9.60;99.90
15426;DHT22;7812;50.072;7.036;2022-12-18T03:14:26;-9.50;99.90
15426;DHT22;7812;50.072;7.036;2022-12-18T03:16:54;-9.50;99.90
15426;DHT22;7812;50.072;7.036;2022-12-18T03:19:25;-9.60;99.90
15426;DHT22;7812;50.072;7.036;2022-12-18T03:21:54;-9.50;99.90
15426;DHT22;7812;50.072;7.036;2022-12-18T03:24:21;-9.50;99.90
15426;DHT22;7812;50.072;7.036;2022-12-18T03:26:56;-9.40;99.90
15426;DHT22;7812;50.072;7.036;2022-12-18T03:29:26;-9.40;99.90
15426;DHT22;7812;50.072;7.036;2022-12-18T03:31:56;-9.40;99.90
15426;DHT22;7812;50.072;7.036;2022-12-18T03:34:27;-9.40;99.90
15426;DHT22;7812;50.072;7.036;2022-12-18T03:36:54;-9.60;99.90
15426;DHT22;7812;50.072;7.036;2022-12-18T03:39:20;-9.80;99.90
15426;DHT22;7812;50.072;7.036;2022-12-18T03:42:01;-10.00;99.90
15426;DHT22;7812;50.072;7.036;2022-12-18T03:47:10;-10.00;99.90
15426;DHT22;7812;50.072;7.036;2022-12-18T03:52:34;-10.00;99.90
15426;DHT22;7812;50.072;7.036;2022-12-18T03:55:02;-9.80;99.90
15426;DHT22;7812;50.072;7.036;2022-12-18T03:57:30;-9.90;99.90
15426;DHT22;7812;50.072;7.036;2022-12-18T04:00:03;-9.90;99.90
15426;DHT22;7812;50.072;7.036;2022-12-18T04:02:30;-9.80;99.90
15426;DHT22;7812;50.072;7.036;2022-12-18T04:04:59;-9.70;99.90
15426;DHT22;7812;50.072;7.036;2022-12-18T04:07:27;-9.80;99.90
15426;DHT22;7812;50.072;7.036;2022-12-18T04:09:55;-9.70;99.90
15426;DHT22;7812;50.072;7.036;2022-12-18T04:12:28;-9.70;99.90
15426;DHT22;7812;50.072;7.036;2022-12-18T04:14:54;-9.90;99.90
15426;DHT22;7812;50.072;7.036;2022-12-18T04:17:20;-9.90;99.90
15426;DHT22;7812;50.072;7.036;2022-12-18T04:19:46;-9.70;99.90
15426;DHT22;7812;50.072;7.036;2022-12-18T04:22:12;-9.80;99.90
15426;DHT22;7812;50.072;7.036;2022-12-18T04:24:38;-9.60;99.90
15426;DHT22;7812;50.072;7.036;2022-12-18T04:27:05;-9.60;99.90
15426;DHT22;7812;50.072;7.036;2022-12-18T04:29:31;-9.70;99.90
15426;DHT22;7812;50.072;7.036;2022-12-18T04:31:56;-9.90;99.90
15426;DHT22;7812;50.072;7.036;2022-12-18T04:34:22;-9.90;99.90
15426;DHT22;7812;50.072;7.036;2022-12-18T04:36:48;-9.90;99.90
15426;DHT22;7812;50.072;7.036;2022-12-18T04:39:14;-10.00;99.90
15426;DHT22;7812;50.072;7.036;2022-12-18T04:41:42;-10.00;99.90
15426;DHT22;7812;50.072;7.036;2022-12-18T04:44:08;-9.70;99.90
15426;DHT22;7812;50.072;7.036;2022-12-18T04:46:34;-9.90;99.90
15426;DHT22;7812;50.072;7.036;2022-12-18T04:48:59;-10.00;99.90
15426;DHT22;7812;50.072;7.036;2022-12-18T04:51:25;-10.00;99.90
15426;DHT22;7812;50.072;7.036;2022-12-18T04:53:51;-10.10;99.90
15426;DHT22;7812;50.072;7.036;2022-12-18T04:56:17;-10.10;99.90
15426;DHT22;7812;50.072;7.036;2022-12-18T04:58:44;-10.10;99.90
15426;DHT22;7812;50.072;7.036;2022-12-18T05:01:11;-10.00;99.90
15426;DHT22;7812;50.072;7.036;2022-12-18T05:03:37;-10.10;99.90
15426;DHT22;7812;50.072;7.036;2022-12-18T05:06:04;-10.30;99.90
15426;DHT22;7812;50.072;7.036;2022-12-18T05:08:30;-10.10;99.90
15426;DHT22;7812;50.072;7.036;2022-12-18T05:11:10;-10.00;99.90
15426;DHT22;7812;50.072;7.036;2022-12-18T05:13:37;-10.10;99.90
15426;DHT22;7812;50.072;7.036;2022-12-18T05:16:04;-10.20;99.90
15426;DHT22;7812;50.072;7.036;2022-12-18T05:18:30;-10.30;99.90
15426;DHT22;7812;50.072;7.036;2022-12-18T05:20:57;-10.20;99.90
15426;DHT22;7812;50.072;7.036;2022-12-18T05:23:23;-10.10;99.90
15426;DHT22;7812;50.072;7.036;2022-12-18T05:25:55;-10.00;99.90
15426;DHT22;7812;50.072;7.036;2022-12-18T05:28:21;-10.00;99.90
15426;DHT22;7812;50.072;7.036;2022-12-18T05:30:52;-9.90;99.90
15426;DHT22;7812;50.072;7.036;2022-12-18T05:33:19;-10.10;99.90
15426;DHT22;7812;50.072;7.036;2022-12-18T05:35:55;-10.00;99.90
15426;DHT22;7812;50.072;7.036;2022-12-18T05:38:23;-10.00;99.90
15426;DHT22;7812;50.072;7.036;2022-12-18T05:40:50;-9.90;99.90
15426;DHT22;7812;50.072;7.036;2022-12-18T05:43:17;-9.90;99.90
15426;DHT22;7812;50.072;7.036;2022-12-18T05:45:43;-9.90;99.90
15426;DHT22;7812;50.072;7.036;2022-12-18T05:48:09;-10.00;99.90
15426;DHT22;7812;50.072;7.036;2022-12-18T05:50:39;-10.10;99.90
15426;DHT22;7812;50.072;7.036;2022-12-18T05:53:05;-10.30;99.90
15426;DHT22;7812;50.072;7.036;2022-12-18T05:55:39;-10.30;99.90
15426;DHT22;7812;50.072;7.036;2022-12-18T05:58:06;-10.20;99.90
15426;DHT22;7812;50.072;7.036;2022-12-18T06:00:34;-10.10;99.90
15426;DHT22;7812;50.072;7.036;2022-12-18T06:03:01;-10.10;99.90
15426;DHT22;7812;50.072;7.036;2022-12-18T06:05:27;-10.20;99.90
15426;DHT22;7812;50.072;7.036;2022-12-18T06:07:53;-10.40;99.90
15426;DHT22;7812;50.072;7.036;2022-12-18T06:10:19;-10.20;99.90
15426;DHT22;7812;50.072;7.036;2022-12-18T06:12:45;-10.20;99.90
15426;DHT22;7812;50.072;7.036;2022-12-18T06:15:11;-10.30;99.90
15426;DHT22;7812;50.072;7.036;2022-12-18T06:17:37;-10.60;99.90
15426;DHT22;7812;50.072;7.036;2022-12-18T06:20:03;-10.50;99.90
15426;DHT22;7812;50.072;7.036;2022-12-18T06:22:32;-10.30;99.90
15426;DHT22;7812;50.072;7.036;2022-12-18T06:24:58;-10.20;99.90
15426;DHT22;7812;50.072;7.036;2022-12-18T06:27:24;-10.10;99.90
15426;DHT22;7812;50.072;7.036;2022-12-18T06:29:50;-9.90;99.90
15426;DHT22;7812;50.072;7.036;2022-12-18T06:32:16;-9.90;99.90
15426;DHT22;7812;50.072;7.036;2022-12-18T06:34:42;-9.80;99.90
15426;DHT22;7812;50.072;7.036;2022-12-18T06:37:07;-10.00;99.90
15426;DHT22;7812;50.072;7.036;2022-12-18T06:39:33;-10.20;99.90
15426;DHT22;7812;50.072;7.036;2022-12-18T06:41:59;-10.00;99.90
15426;DHT22;7812;50.072;7.036;2022-12-18T06:44:24;-9.90;99.90
15426;DHT22;7812;50.072;7.036;2022-12-18T06:46:50;-10.00;99.90
15426;DHT22;7812;50.072;7.036;2022-12-18T06:49:16;-10.10;99.90
15426;DHT22;7812;50.072;7.036;2022-12-18T06:51:42;-10.00;99.90
15426;DHT22;7812;50.072;7.036;2022-12-18T06:54:08;-10.00;99.90
15426;DHT22;7812;50.072;7.036;2022-12-18T06:56:34;-10.10;99.90
15426;DHT22;7812;50.072;7.036;2022-12-18T06:59:00;-10.30;99.90
15426;DHT22;7812;50.072;7.036;2022-12-18T07:01:26;-10.30;99.90
15426;DHT22;7812;50.072;7.036;2022-12-18T07:03:53;-10.30;99.90
15426;DHT22;7812;50.072;7.036;2022-12-18T07:06:21;-10.30;99.90
15426;DHT22;7812;50.072;7.036;2022-12-18T07:08:48;-10.20;99.90
15426;DHT22;7812;50.072;7.036;2022-12-18T07:11:15;-10.30;99.90
15426;DHT22;7812;50.072;7.036;2022-12-18T07:13:41;-10.40;99.90
15426;DHT22;7812;50.072;7.036;2022-12-18T07:16:21;-10.50;99.90
15426;DHT22;7812;50.072;7.036;2022-12-18T07:18:46;-10.50;99.90
15426;DHT22;7812;50.072;7.036;2022-12-18T07:21:16;-10.40;99.90
15426;DHT22;7812;50.072;7.036;2022-12-18T07:23:42;-10.30;99.90
15426;DHT22;7812;50.072;7.036;2022-12-18T07:26:11;-10.50;99.90
15426;DHT22;7812;50.072;7.036;2022-12-18T07:28:39;-10.40;99.90
15426;DHT22;7812;50.072;7.036;2022-12-18T07:31:06;-10.40;99.90
15426;DHT22;7812;50.072;7.036;2022-12-18T07:33:33;-10.20;99.90
15426;DHT22;7812;50.072;7.036;2022-12-18T07:36:04;-10.10;99.90
15426;DHT22;7812;50.072;7.036;2022-12-18T07:38:31;-10.10;99.90
15426;DHT22;7812;50.072;7.036;2022-12-18T07:41:02;-10.10;99.90
15426;DHT22;7812;50.072;7.036;2022-12-18T07:43:28;-9.90;99.90
15426;DHT22;7812;50.072;7.036;2022-12-18T07:45:53;-9.90;99.90
15426;DHT22;7812;50.072;7.036;2022-12-18T07:48:19;-10.00;99.90
15426;DHT22;7812;50.072;7.036;2022-12-18T07:50:45;-10.20;99.90
15426;DHT22;7812;50.072;7.036;2022-12-18T07:53:10;-10.40;99.90
15426;DHT22;7812;50.072;7.036;2022-12-18T07:55:36;-10.30;99.90
15426;DHT22;7812;50.072;7.036;2022-12-18T07:58:03;-10.10;99.90
15426;DHT22;7812;50.072;7.036;2022-12-18T08:00:30;-10.00;99.90
15426;DHT22;7812;50.072;7.036;2022-12-18T08:02:56;-9.90;99.90
15426;DHT22;7812;50.072;7.036;2022-12-18T08:05:23;-9.80;99.90
15426;DHT22;7812;50.072;7.036;2022-12-18T08:07:48;-9.80;99.90
15426;DHT22;7812;50.072;7.036;2022-12-18T08:10:15;-9.90;99.90
15426;DHT22;7812;50.072;7.036;2022-12-18T08:12:40;-10.00;99.90
15426;DHT22;7812;50.072;7.036;2022-12-18T08:15:06;-9.80;99.90
15426;DHT22;7812;50.072;7.036;2022-12-18T08:17:32;-9.60;99.90
15426;DHT22;7812;50.072;7.036;2022-12-18T08:19:58;-9.50;99.90
15426;DHT22;7812;50.072;7.036;2022-12-18T08:22:24;-9.40;99.90
15426;DHT22;7812;50.072;7.036;2022-12-18T08:24:50;-9.10;99.90
15426;DHT22;7812;50.072;7.036;2022-12-18T08:27:15;-9.10;99.90
15426;DHT22;7812;50.072;7.036;2022-12-18T08:29:41;-9.00;99.90
15426;DHT22;7812;50.072;7.036;2022-12-18T08:32:07;-9.20;99.90
15426;DHT22;7812;50.072;7.036;2022-12-18T08:34:33;-9.20;99.90
15426;DHT22;7812;50.072;7.036;2022-12-18T08:36:59;-8.80;99.90
15426;DHT22;7812;50.072;7.036;2022-12-18T08:39:25;-8.30;99.90
15426;DHT22;7812;50.072;7.036;2022-12-18T08:41:51;-8.30;99.90
15426;DHT22;7812;50.072;7.036;2022-12-18T08:44:35;-8.40;99.90
15426;DHT22;7812;50.072;7.036;2022-12-18T08:47:05;-8.70;99.90
15426;DHT22;7812;50.072;7.036;2022-12-18T08:49:31;-8.90;99.90
15426;DHT22;7812;50.072;7.036;2022-12-18T08:51:57;-8.60;99.90
15426;DHT22;7812;50.072;7.036;2022-12-18T08:54:23;-8.20;99.90
15426;DHT22;7812;50.072;7.036;2022-12-18T08:56:50;-7.40;99.90
15426;DHT22;7812;50.072;7.036;2022-12-18T08:59:19;-6.90;99.90
15426;DHT22;7812;50.072;7.036;2022-12-18T09:01:45;-6.50;99.90
15426;DHT22;7812;50.072;7.036;2022-12-18T09:04:11;-6.20;99.90
15426;DHT22;7812;50.072;7.036;2022-12-18T09:06:38;-5.30;99.90
15426;DHT22;7812;50.072;7.036;2022-12-18T09:09:10;-4.00;99.90
15426;DHT22;7812;50.072;7.036;2022-12-18T09:11:36;-3.50;99.90
15426;DHT22;7812;50.072;7.036;2022-12-18T09:14:02;-3.20;99.90
15426;DHT22;7812;50.072;7.036;2022-12-18T09:16:29;-3.80;99.90
15426;DHT22;7812;50.072;7.036;2022-12-18T09:18:55;-3.80;99.90
15426;DHT22;7812;50.072;7.036;2022-12-18T09:21:26;-3.10;99.90
15426;DHT22;7812;50.072;7.036;2022-12-18T09:23:54;-1.90;99.90
15426;DHT22;7812;50.072;7.036;2022-12-18T09:26:22;-1.40;99.90
15426;DHT22;7812;50.072;7.036;2022-12-18T09:28:48;-1.70;99.90
15426;DHT22;7812;50.072;7.036;2022-12-18T09:31:16;-0.50;99.90
15426;DHT22;7812;50.072;7.036;2022-12-18T09:33:45;0.40;99.90
15426;DHT22;7812;50.072;7.036;2022-12-18T09:36:13;0.10;99.90
15426;DHT22;7812;50.072;7.036;2022-12-18T09:38:39;-0.60;99.90
15426;DHT22;7812;50.072;7.036;2022-12-18T09:44:01;0.70;99.90
15426;DHT22;7812;50.072;7.036;2022-12-18T09:46:32;1.90;99.90
15426;DHT22;7812;50.072;7.036;2022-12-18T09:49:02;2.80;99.90
15426;DHT22;7812;50.072;7.036;2022-12-18T09:51:35;1.70;99.90
15426;DHT22;7812;50.072;7.036;2022-12-18T09:54:18;2.50;99.90
15426;DHT22;7812;50.072;7.036;2022-12-18T09:56:45;0.30;99.90
15426;DHT22;7812;50.072;7.036;2022-12-18T09:59:30;0.40;99.90
15426;DHT22;7812;50.072;7.036;2022-12-18T10:01:57;0.20;99.90
15426;DHT22;7812;50.072;7.036;2022-12-18T10:04:23;-1.90;99.90
15426;DHT22;7812;50.072;7.036;2022-12-18T10:07:05;-2.70;99.90
15426;DHT22;7812;50.072;7.036;2022-12-18T10:09:39;-1.10;99.90
15426;DHT22;7812;50.072;7.036;2022-12-18T10:27:30;1.80;99.90
15426;DHT22;7812;50.072;7.036;2022-12-18T10:29:57;1.90;99.90
15426;DHT22;7812;50.072;7.036;2022-12-18T10:32:28;0.40;99.90
15426;DHT22;7812;50.072;7.036;2022-12-18T10:34:56;0.20;99.90
15426;DHT22;7812;50.072;7.036;2022-12-18T10:37:25;0.60;99.90
15426;DHT22;7812;50.072;7.036;2022-12-18T10:42:38;1.50;99.90
15426;DHT22;7812;50.072;7.036;2022-12-18T10:45:12;2.00;99.90
15426;DHT22;7812;50.072;7.036;2022-12-18T10:47:48;0.20;99.90
15426;DHT22;7812;50.072;7.036;2022-12-18T10:50:34;0.40;99.90
15426;DHT22;7812;50.072;7.036;2022-12-18T10:53:03;0.40;99.90
15426;DHT22;7812;50.072;7.036;2022-12-18T10:55:33;1.00;99.90
15426;DHT22;7812;50.072;7.036;2022-12-18T10:58:23;0.50;99.90
15426;DHT22;7812;50.072;7.036;2022-12-18T11:01:11;-0.10;99.90
15426;DHT22;7812;50.072;7.036;2022-12-18T11:03:38;0.10;99.90
15426;DHT22;7812;50.072;7.036;2022-12-18T11:06:18;-0.50;99.90
15426;DHT22;7812;50.072;7.036;2022-12-18T11:09:00;-0.50;99.90
15426;DHT22;7812;50.072;7.036;2022-12-18T11:11:27;-0.60;99.90
15426;DHT22;7812;50.072;7.036;2022-12-18T11:16:26;0.20;99.90
15426;DHT22;7812;50.072;7.036;2022-12-18T11:18:52;-0.20;99.90
15426;DHT22;7812;50.072;7.036;2022-12-18T11:21:18;-0.50;99.90
15426;DHT22;7812;50.072;7.036;2022-12-18T11:26:13;-1.00;99.90
15426;DHT22;7812;50.072;7.036;2022-12-18T11:29:08;-0.70;99.90
15426;DHT22;7812;50.072;7.036;2022-12-18T11:31:35;-0.70;99.90
15426;DHT22;7812;50.072;7.036;2022-12-18T11:34:27;-0.70;99.90
15426;DHT22;7812;50.072;7.036;2022-12-18T11:36:55;-0.70;99.90
15426;DHT22;7812;50.072;7.036;2022-12-18T11:39:45;-0.40;99.90
15426;DHT22;7812;50.072;7.036;2022-12-18T11:44:55;-0.70;99.90
15426;DHT22;7812;50.072;7.036;2022-12-18T11:50:18;-0.70;99.90
15426;DHT22;7812;50.072;7.036;2022-12-18T11:52:45;-0.20;99.90
15426;DHT22;7812;50.072;7.036;2022-12-18T11:55:21;-0.20;99.90
15426;DHT22;7812;50.072;7.036;2022-12-18T11:58:01;-0.40;99.90
15426;DHT22;7812;50.072;7.036;2022-12-18T12:00:29;-0.20;99.90
15426;DHT22;7812;50.072;7.036;2022-12-18T12:38:51;-2.30;99.90
15426;DHT22;7812;50.072;7.036;2022-12-18T12:41:19;-2.50;99.90
15426;DHT22;7812;50.072;7.036;2022-12-18T12:44:22;-2.60;99.90
15426;DHT22;7812;50.072;7.036;2022-12-18T12:46:50;-2.50;99.90
15426;DHT22;7812;50.072;7.036;2022-12-18T12:49:19;-2.50;99.90
15426;DHT22;7812;50.072;7.036;2022-12-18T12:52:06;-2.40;99.90
15426;DHT22;7812;50.072;7.036;2022-12-18T12:54:33;-2.40;99.90
15426;DHT22;7812;50.072;7.036;2022-12-18T12:57:16;-2.50;99.90
15426;DHT22;7812;50.072;7.036;2022-12-18T13:00:04;-2.50;99.90
15426;DHT22;7812;50.072;7.036;2022-12-18T13:05:53;-2.80;99.90
15426;DHT22;7812;50.072;7.036;2022-12-18T13:08:30;-2.70;99.90
15426;DHT22;7812;50.072;7.036;2022-12-18T13:10:58;-2.60;99.90
15426;DHT22;7812;50.072;7.036;2022-12-18T13:13:54;-2.60;99.90
15426;DHT22;7812;50.072;7.036;2022-12-18T13:16:24;-2.50;99.90
15426;DHT22;7812;50.072;7.036;2022-12-18T13:18:52;-2.60;99.90
15426;DHT22;7812;50.072;7.036;2022-12-18T13:21:26;-2.50;99.90
15426;DHT22;7812;50.072;7.036;2022-12-18T13:23:53;-2.60;99.90
15426;DHT22;7812;50.072;7.036;2022-12-18T13:31:12;-2.80;99.90
15426;DHT22;7812;50.072;7.036;2022-12-18T13:33:44;-2.70;99.90
15426;DHT22;7812;50.072;7.036;2022-12-18T13:41:37;-2.90;99.90
15426;DHT22;7812;50.072;7.036;2022-12-18T13:44:38;-2.90;99.90
15426;DHT22;7812;50.072;7.036;2022-12-18T13:50:22;-3.10;99.90
15426;DHT22;7812;50.072;7.036;2022-12-18T13:52:52;-3.10;99.90
15426;DHT22;7812;50.072;7.036;2022-12-18T13:55:20;-3.00;99.90
15426;DHT22;7812;50.072;7.036;2022-12-18T13:57:46;-3.00;99.90
15426;DHT22;7812;50.072;7.036;2022-12-18T14:02:50;-3.10;99.90
15426;DHT22;7812;50.072;7.036;2022-12-18T14:05:28;-3.00;99.90
15426;DHT22;7812;50.072;7.036;2022-12-18T14:08:06;-2.90;99.90
15426;DHT22;7812;50.072;7.036;2022-12-18T14:10:33;-3.10;99.90
15426;DHT22;7812;50.072;7.036;2022-12-18T14:13:06;-3.10;99.90
15426;DHT22;7812;50.072;7.036;2022-12-18T14:15:42;-3.10;99.90
15426;DHT22;7812;50.072;7.036;2022-12-18T14:20:52;-3.10;99.90
15426;DHT22;7812;50.072;7.036;2022-12-18T14:23:37;-3.10;99.90
15426;DHT22;7812;50.072;7.036;2022-12-18T14:28:47;-3.30;99.90
15426;DHT22;7812;50.072;7.036;2022-12-18T14:31:23;-3.30;99.90
15426;DHT22;7812;50.072;7.036;2022-12-18T14:33:49;-3.30;99.90
15426;DHT22;7812;50.072;7.036;2022-12-18T14:36:23;-3.30;99.90
15426;DHT22;7812;50.072;7.036;2022-12-18T14:38:58;-3.30;99.90
15426;DHT22;7812;50.072;7.036;2022-12-18T14:41:24;-3.20;99.90
15426;DHT22;7812;50.072;7.036;2022-12-18T14:43:52;-3.30;99.90
15426;DHT22;7812;50.072;7.036;2022-12-18T14:48:59;-3.20;99.90
15426;DHT22;7812;50.072;7.036;2022-12-18T14:51:30;-3.00;99.90
15426;DHT22;7812;50.072;7.036;2022-12-18T14:54:00;-3.20;99.90
15426;DHT22;7812;50.072;7.036;2022-12-18T14:56:31;-3.10;99.90
15426;DHT22;7812;50.072;7.036;2022-12-18T14:59:15;-3.10;99.90
15426;DHT22;7812;50.072;7.036;2022-12-18T15:01:48;-3.10;99.90
15426;DHT22;7812;50.072;7.036;2022-12-18T15:09:34;-3.30;99.90
15426;DHT22;7812;50.072;7.036;2022-12-18T15:12:01;-3.20;99.90
15426;DHT22;7812;50.072;7.036;2022-12-18T15:16:56;-3.30;99.90
15426;DHT22;7812;50.072;7.036;2022-12-18T15:19:32;-3.50;99.90
15426;DHT22;7812;50.072;7.036;2022-12-18T15:21:59;-3.60;99.90
15426;DHT22;7812;50.072;7.036;2022-12-18T15:24:29;-3.60;99.90
15426;DHT22;7812;50.072;7.036;2022-12-18T15:26:56;-3.60;99.90
15426;DHT22;7812;50.072;7.036;2022-12-18T15:29:24;-3.60;99.90
15426;DHT22;7812;50.072;7.036;2022-12-18T15:32:05;-3.60;99.90
15426;DHT22;7812;50.072;7.036;2022-12-18T15:34:32;-3.70;99.90
15426;DHT22;7812;50.072;7.036;2022-12-18T15:36:59;-3.70;99.90
15426;DHT22;7812;50.072;7.036;2022-12-18T15:39:25;-3.60;99.90
15426;DHT22;7812;50.072;7.036;2022-12-18T15:41:51;-3.70;99.90
15426;DHT22;7812;50.072;7.036;2022-12-18T15:44:35;-3.70;99.90
15426;DHT22;7812;50.072;7.036;2022-12-18T15:47:02;-3.80;99.90
15426;DHT22;7812;50.072;7.036;2022-12-18T15:49:27;-3.70;99.90
15426;DHT22;7812;50.072;7.036;2022-12-18T15:51:56;-3.60;99.90
15426;DHT22;7812;50.072;7.036;2022-12-18T15:54:23;-3.70;99.90
15426;DHT22;7812;50.072;7.036;2022-12-18T15:57:11;-3.50;99.90
15426;DHT22;7812;50.072;7.036;2022-12-18T15:59:54;-3.50;99.90
15426;DHT22;7812;50.072;7.036;2022-12-18T16:02:21;-3.70;99.90
15426;DHT22;7812;50.072;7.036;2022-12-18T16:04:48;-3.70;99.90
15426;DHT22;7812;50.072;7.036;2022-12-18T16:07:14;-3.70;99.90
15426;DHT22;7812;50.072;7.036;2022-12-18T16:09:41;-3.90;99.90
15426;DHT22;7812;50.072;7.036;2022-12-18T16:12:24;-3.90;99.90
15426;DHT22;7812;50.072;7.036;2022-12-18T16:14:51;-3.80;99.90
15426;DHT22;7812;50.072;7.036;2022-12-18T16:17:16;-3.90;99.90
15426;DHT22;7812;50.072;7.036;2022-12-18T16:19:42;-3.80;99.90
15426;DHT22;7812;50.072;7.036;2022-12-18T16:22:21;-3.80;99.90
15426;DHT22;7812;50.072;7.036;2022-12-18T16:24:48;-3.80;99.90
15426;DHT22;7812;50.072;7.036;2022-12-18T16:27:14;-3.70;99.90
15426;DHT22;7812;50.072;7.036;2022-12-18T16:29:39;-3.60;99.90
15426;DHT22;7812;50.072;7.036;2022-12-18T16:32:05;-3.80;99.90
15426;DHT22;7812;50.072;7.036;2022-12-18T16:34:33;-3.90;99.90
15426;DHT22;7812;50.072;7.036;2022-12-18T16:37:05;-3.90;99.90
15426;DHT22;7812;50.072;7.036;2022-12-18T16:39:32;-3.90;99.90
15426;DHT22;7812;50.072;7.036;2022-12-18T16:42:00;-3.70;99.90
15426;DHT22;7812;50.072;7.036;2022-12-18T16:44:25;-3.50;99.90
15426;DHT22;7812;50.072;7.036;2022-12-18T16:46:51;-3.20;99.90
15426;DHT22;7812;50.072;7.036;2022-12-18T16:49:18;-3.50;99.90
15426;DHT22;7812;50.072;7.036;2022-12-18T16:51:45;-3.40;99.90
15426;DHT22;7812;50.072;7.036;2022-12-18T16:54:11;-3.30;99.90
15426;DHT22;7812;50.072;7.036;2022-12-18T16:56:37;-3.10;99.90
15426;DHT22;7812;50.072;7.036;2022-12-18T16:59:04;-2.90;99.90
15426;DHT22;7812;50.072;7.036;2022-12-18T17:01:31;-2.90;99.90
15426;DHT22;7812;50.072;7.036;2022-12-18T17:04:02;-3.00;99.90
15426;DHT22;7812;50.072;7.036;2022-12-18T17:06:29;-3.30;99.90
15426;DHT22;7812;50.072;7.036;2022-12-18T17:09:05;-3.70;99.90
15426;DHT22;7812;50.072;7.036;2022-12-18T17:11:33;-3.90;99.90
15426;DHT22;7812;50.072;7.036;2022-12-18T17:13:59;-3.90;99.90
15426;DHT22;7812;50.072;7.036;2022-12-18T17:16:30;-3.90;99.90
15426;DHT22;7812;50.072;7.036;2022-12-18T17:18:55;-3.90;99.90
15426;DHT22;7812;50.072;7.036;2022-12-18T17:21:21;-3.80;99.90
15426;DHT22;7812;50.072;7.036;2022-12-18T17:23:47;-3.90;99.90
15426;DHT22;7812;50.072;7.036;2022-12-18T17:26:14;-3.80;99.90
15426;DHT22;7812;50.072;7.036;2022-12-18T17:28:40;-3.70;99.90
15426;DHT22;7812;50.072;7.036;2022-12-18T17:31:20;-3.60;99.90
15426;DHT22;7812;50.072;7.036;2022-12-18T17:33:48;-3.50;99.90
15426;DHT22;7812;50.072;7.036;2022-12-18T17:36:15;-3.60;99.90
15426;DHT22;7812;50.072;7.036;2022-12-18T17:38:52;-3.70;99.90
15426;DHT22;7812;50.072;7.036;2022-12-18T17:41:19;-3.70;99.90
15426;DHT22;7812;50.072;7.036;2022-12-18T17:43:51;-3.70;99.90
15426;DHT22;7812;50.072;7.036;2022-12-18T17:46:17;-3.90;99.90
15426;DHT22;7812;50.072;7.036;2022-12-18T17:48:43;-4.00;99.90
15426;DHT22;7812;50.072;7.036;2022-12-18T17:51:13;-4.00;99.90
15426;DHT22;7812;50.072;7.036;2022-12-18T17:53:39;-3.90;99.90
15426;DHT22;7812;50.072;7.036;2022-12-18T17:56:05;-3.90;99.90
15426;DHT22;7812;50.072;7.036;2022-12-18T17:58:33;-3.80;99.90
15426;DHT22;7812;50.072;7.036;2022-12-18T18:01:00;-3.70;99.90
15426;DHT22;7812;50.072;7.036;2022-12-18T18:03:27;-3.70;99.90
15426;DHT22;7812;50.072;7.036;2022-12-18T18:06:00;-3.40;99.90
15426;DHT22;7812;50.072;7.036;2022-12-18T18:08:27;-3.50;99.90
15426;DHT22;7812;50.072;7.036;2022-12-18T18:10:53;-3.40;99.90